createdAt,value
2023-05-19T00:00:58.820Z,5.68
2023-05-19T00:02:01.598Z,5.23
2023-05-19T00:03:04.682Z,5.58
2023-05-19T00:04:07.651Z,4.92
2023-05-19T00:05:10.425Z,6.74
2023-05-19T00:06:13.548Z,4.43
2023-05-19T00:07:16.375Z,4.59
2023-05-19T00:08:19.254Z,4.74
2023-05-19T00:09:21.956Z,8.31
2023-05-19T00:10:24.799Z,6.42
2023-05-19T00:11:27.976Z,4.86
2023-05-19T00:12:30.854Z,4.95
2023-05-19T00:13:33.730Z,3.32
2023-05-19T00:14:36.401Z,6.41
2023-05-19T00:15:39.109Z,8.40
2023-05-19T00:16:42.041Z,7.72
2023-05-19T00:17:44.945Z,5.97
2023-05-19T00:18:47.734Z,5.99
2023-05-19T00:19:50.568Z,4.99
2023-05-19T00:20:53.444Z,4.97
2023-05-19T00:21:56.312Z,5.85
2023-05-19T00:22:59.287Z,3.78
2023-05-19T00:24:02.182Z,4.59
2023-05-19T00:25:05.046Z,5.00
2023-05-19T00:26:07.812Z,4.37
2023-05-19T00:27:10.681Z,4.73
2023-05-19T00:28:13.465Z,6.38
2023-05-19T00:29:16.241Z,8.95
2023-05-19T00:30:18.999Z,6.73
2023-05-19T00:31:21.890Z,14.25
2023-05-19T00:32:24.893Z,7.36
2023-05-19T00:33:27.727Z,12.98
2023-05-19T00:34:30.499Z,10.58
2023-05-19T00:35:33.391Z,7.80
2023-05-19T00:36:36.155Z,3.49
2023-05-19T00:37:39.223Z,4.79
2023-05-19T00:38:42.123Z,6.23
2023-05-19T00:39:44.976Z,9.22
2023-05-19T00:40:47.646Z,5.26
2023-05-19T00:41:50.424Z,6.33
2023-05-19T00:42:53.311Z,5.05
2023-05-19T00:43:55.972Z,7.05
2023-05-19T00:44:58.633Z,7.92
2023-05-19T00:46:01.424Z,3.67
2023-05-19T00:47:04.306Z,5.11
2023-05-19T00:48:07.222Z,7.13
2023-05-19T00:49:10.033Z,6.82
2023-05-19T00:50:12.911Z,12.33
2023-05-19T00:51:15.785Z,7.35
2023-05-19T00:52:18.598Z,4.73
2023-05-19T00:53:28.186Z,6.51
2023-05-19T00:54:31.060Z,4.79
2023-05-19T00:55:33.833Z,3.42
2023-05-19T00:56:36.606Z,5.08
2023-05-19T00:57:39.479Z,7.14
2023-05-19T00:58:42.562Z,7.56
2023-05-19T00:59:45.433Z,6.68
2023-05-19T01:00:48.354Z,5.52
2023-05-19T01:01:51.082Z,8.77
2023-05-19T01:02:53.887Z,14.42
2023-05-19T01:03:57.080Z,24.38
2023-05-19T01:05:00.030Z,16.04
2023-05-19T01:06:02.680Z,12.29
2023-05-19T01:07:05.557Z,21.37
2023-05-19T01:08:08.553Z,31.48
2023-05-19T01:09:12.178Z,24.34
2023-05-19T01:10:14.998Z,5.07
2023-05-19T01:11:17.979Z,3.53
2023-05-19T01:12:20.748Z,5.05
2023-05-19T01:13:23.838Z,8.30
2023-05-19T01:14:27.015Z,5.56
2023-05-19T01:15:29.986Z,3.68
2023-05-19T01:16:32.521Z,4.33
2023-05-19T01:17:35.362Z,4.00
2023-05-19T01:18:38.163Z,4.88
2023-05-19T01:19:40.972Z,3.75
2023-05-19T01:20:43.852Z,4.61
2023-05-19T01:21:46.515Z,3.91
2023-05-19T01:22:49.292Z,4.48
2023-05-19T01:23:51.956Z,5.08
2023-05-19T01:24:54.936Z,3.87
2023-05-19T01:25:57.707Z,5.00
2023-05-19T01:27:00.480Z,5.48
2023-05-19T01:28:03.261Z,4.71
2023-05-19T01:29:06.024Z,5.34
2023-05-19T01:30:09.001Z,3.61
2023-05-19T01:31:12.597Z,5.33
2023-05-19T01:32:15.590Z,4.06
2023-05-19T01:33:18.353Z,3.29
2023-05-19T01:34:21.221Z,2.31
2023-05-19T01:35:24.092Z,4.60
2023-05-19T01:36:26.878Z,4.61
2023-05-19T01:37:29.639Z,4.55
2023-05-19T01:38:32.305Z,4.70
2023-05-19T01:39:35.179Z,3.60
2023-05-19T01:40:38.171Z,4.32
2023-05-19T01:41:41.031Z,4.00
2023-05-19T01:42:43.806Z,4.39
2023-05-19T01:43:46.594Z,2.79
2023-05-19T01:44:49.349Z,4.47
2023-05-19T01:45:52.368Z,3.24
2023-05-19T01:46:55.308Z,3.35
2023-05-19T01:47:58.049Z,3.50
2023-05-19T01:49:01.056Z,5.08
2023-05-19T01:50:04.032Z,3.77
2023-05-19T01:51:07.111Z,7.65
2023-05-19T01:52:10.102Z,5.28
2023-05-19T01:53:12.776Z,4.29
2023-05-19T01:54:15.732Z,3.80
2023-05-19T01:55:18.718Z,2.82
2023-05-19T01:56:21.995Z,2.45
2023-05-19T01:57:24.668Z,2.90
2023-05-19T01:58:27.442Z,3.80
2023-05-19T01:59:30.323Z,5.81
2023-05-19T02:00:33.442Z,3.08
2023-05-19T02:01:36.918Z,4.02
2023-05-19T02:02:39.688Z,2.42
2023-05-19T02:03:42.458Z,3.38
2023-05-19T02:04:45.264Z,1.72
2023-05-19T02:05:47.974Z,1.88
2023-05-19T02:06:50.957Z,1.83
2023-05-19T02:07:53.747Z,3.19
2023-05-19T02:08:56.596Z,3.80
2023-05-19T02:09:59.378Z,4.27
2023-05-19T02:11:02.138Z,4.46
2023-05-19T02:12:05.220Z,4.79
2023-05-19T02:13:07.996Z,3.28
2023-05-19T02:14:10.869Z,4.09
2023-05-19T02:15:13.743Z,2.92
2023-05-19T02:16:16.555Z,4.34
2023-05-19T02:17:19.385Z,4.09
2023-05-19T02:18:22.286Z,5.90
2023-05-19T02:19:25.305Z,3.16
2023-05-19T02:20:28.224Z,3.02
2023-05-19T02:21:30.816Z,3.73
2023-05-19T02:22:33.870Z,3.20
2023-05-19T02:23:36.630Z,2.09
2023-05-19T02:24:39.404Z,3.38
2023-05-19T02:25:42.091Z,5.08
2023-05-19T02:26:44.856Z,5.47
2023-05-19T02:27:47.822Z,3.35
2023-05-19T02:28:50.700Z,2.96
2023-05-19T02:29:53.580Z,4.82
2023-05-19T02:30:56.682Z,3.37
2023-05-19T02:31:59.343Z,4.18
2023-05-19T02:33:02.462Z,2.67
2023-05-19T02:34:05.382Z,2.98
2023-05-19T02:35:08.187Z,3.08
2023-05-19T02:36:10.943Z,4.67
2023-05-19T02:37:13.728Z,5.26
2023-05-19T02:38:16.801Z,4.78
2023-05-19T02:39:19.652Z,5.86
2023-05-19T02:40:22.529Z,5.05
2023-05-19T02:41:25.296Z,5.32
2023-05-19T02:42:28.069Z,3.47
2023-05-19T02:43:31.161Z,6.73
2023-05-19T02:44:34.126Z,3.81
2023-05-19T02:45:36.909Z,4.27
2023-05-19T02:46:39.897Z,4.48
2023-05-19T02:47:42.687Z,6.63
2023-05-19T02:48:45.193Z,4.85
2023-05-19T02:49:48.097Z,4.03
2023-05-19T02:50:51.009Z,4.00
2023-05-19T02:51:53.946Z,5.33
2023-05-19T02:52:56.915Z,5.78
2023-05-19T02:53:59.897Z,3.31
2023-05-19T02:55:02.780Z,4.24
2023-05-19T02:56:05.542Z,5.24
2023-05-19T02:57:08.416Z,3.85
2023-05-19T02:58:11.188Z,3.40
2023-05-19T02:59:14.686Z,4.14
2023-05-19T03:00:17.452Z,5.81
2023-05-19T03:01:20.365Z,5.13
2023-05-19T03:02:23.207Z,7.65
2023-05-19T03:03:26.044Z,3.91
2023-05-19T03:04:29.462Z,4.62
2023-05-19T03:05:37.118Z,5.09
2023-05-19T03:06:39.817Z,3.96
2023-05-19T03:07:42.591Z,4.09
2023-05-19T03:08:45.274Z,3.36
2023-05-19T03:09:48.139Z,3.36
2023-05-19T03:10:50.802Z,4.48
2023-05-19T03:11:53.574Z,5.08
2023-05-19T03:12:56.464Z,7.48
2023-05-19T03:13:59.218Z,3.45
2023-05-19T03:15:02.306Z,3.40
2023-05-19T03:16:05.001Z,3.02
2023-05-19T03:17:08.153Z,7.15
2023-05-19T03:18:10.942Z,4.82
2023-05-19T03:19:13.761Z,7.82
2023-05-19T03:20:16.479Z,5.66
2023-05-19T03:21:19.251Z,3.52
2023-05-19T03:22:22.029Z,3.28
2023-05-19T03:23:24.819Z,4.36
2023-05-19T03:24:27.561Z,4.47
2023-05-19T03:25:30.332Z,3.94
2023-05-19T03:26:33.108Z,3.32
2023-05-19T03:27:35.999Z,4.37
2023-05-19T03:28:38.669Z,3.19
2023-05-19T03:29:41.424Z,2.08
2023-05-19T03:30:44.552Z,3.51
2023-05-19T03:31:47.196Z,5.20
2023-05-19T03:32:49.988Z,7.19
2023-05-19T03:33:52.723Z,6.56
2023-05-19T03:34:55.501Z,4.15
2023-05-19T03:35:58.572Z,4.85
2023-05-19T03:37:01.241Z,2.96
2023-05-19T03:38:04.029Z,3.74
2023-05-19T03:39:06.686Z,3.83
2023-05-19T03:40:09.461Z,2.78
2023-05-19T03:41:12.337Z,2.82
2023-05-19T03:42:15.104Z,4.65
2023-05-19T03:43:17.878Z,2.34
2023-05-19T03:44:20.550Z,3.79
2023-05-19T03:45:23.442Z,4.22
2023-05-19T03:46:26.492Z,2.48
2023-05-19T03:47:29.390Z,3.21
2023-05-19T03:48:32.045Z,2.28
2023-05-19T03:49:34.814Z,3.40
2023-05-19T03:50:37.591Z,8.82
2023-05-19T03:51:40.974Z,3.90
2023-05-19T03:52:43.747Z,7.73
2023-05-19T03:53:46.519Z,17.29
2023-05-19T03:54:49.291Z,21.52
2023-05-19T03:55:52.068Z,5.43
2023-05-19T03:56:55.144Z,3.84
2023-05-19T03:57:57.818Z,3.61
2023-05-19T03:59:00.486Z,4.11
2023-05-19T04:00:03.255Z,5.32
2023-05-19T04:01:06.028Z,4.96
2023-05-19T04:02:08.843Z,4.16
2023-05-19T04:03:11.826Z,3.11
2023-05-19T04:04:14.665Z,2.48
2023-05-19T04:05:17.550Z,3.84
2023-05-19T04:06:20.203Z,4.20
2023-05-19T04:07:23.180Z,2.62
2023-05-19T04:08:25.942Z,3.07
2023-05-19T04:09:28.822Z,6.37
2023-05-19T04:10:31.818Z,3.65
2023-05-19T04:11:34.873Z,2.38
2023-05-19T04:12:38.058Z,2.32
2023-05-19T04:13:40.823Z,3.55
2023-05-19T04:14:43.606Z,2.52
2023-05-19T04:15:46.390Z,3.58
2023-05-19T04:16:49.040Z,3.38
2023-05-19T04:17:52.050Z,2.43
2023-05-19T04:18:54.713Z,1.92
2023-05-19T04:19:57.357Z,2.29
2023-05-19T04:21:00.169Z,3.25
2023-05-19T04:22:02.902Z,5.17
2023-05-19T04:23:06.094Z,7.84
2023-05-19T04:24:08.855Z,9.70
2023-05-19T04:25:11.528Z,11.11
2023-05-19T04:26:14.199Z,6.22
2023-05-19T04:27:16.869Z,3.53
2023-05-19T04:28:19.849Z,4.95
2023-05-19T04:29:22.522Z,5.62
2023-05-19T04:30:25.201Z,2.19
2023-05-19T04:31:28.408Z,3.52
2023-05-19T04:32:31.475Z,3.93
2023-05-19T04:33:34.523Z,3.82
2023-05-19T04:34:37.195Z,4.74
2023-05-19T04:35:39.970Z,8.98
2023-05-19T04:36:42.845Z,4.60
2023-05-19T04:37:45.615Z,4.81
2023-05-19T04:38:48.701Z,5.19
2023-05-19T04:39:51.463Z,4.57
2023-05-19T04:40:54.247Z,5.07
2023-05-19T04:41:57.018Z,6.31
2023-05-19T04:42:59.791Z,4.55
2023-05-19T04:44:02.679Z,4.97
2023-05-19T04:45:05.450Z,2.97
2023-05-19T04:46:08.239Z,4.19
2023-05-19T04:47:11.102Z,3.18
2023-05-19T04:48:13.868Z,4.98
2023-05-19T04:49:16.518Z,2.20
2023-05-19T04:50:19.394Z,3.22
2023-05-19T04:51:22.278Z,5.19
2023-05-19T04:52:25.145Z,4.79
2023-05-19T04:53:27.714Z,3.79
2023-05-19T04:54:30.691Z,7.54
2023-05-19T04:55:33.562Z,4.45
2023-05-19T04:56:36.436Z,3.74
2023-05-19T04:57:39.628Z,4.45
2023-05-19T04:58:42.291Z,4.21
2023-05-19T04:59:45.061Z,8.86
2023-05-19T05:00:47.839Z,9.68
2023-05-19T05:01:50.521Z,8.68
2023-05-19T05:02:53.411Z,4.25
2023-05-19T05:03:56.384Z,3.98
2023-05-19T05:04:59.116Z,4.63
2023-05-19T05:06:01.918Z,1.42
2023-05-19T05:07:04.676Z,2.39
2023-05-19T05:08:07.331Z,6.98
2023-05-19T05:09:10.210Z,5.08
2023-05-19T05:10:12.884Z,5.82
2023-05-19T05:11:15.652Z,5.95
2023-05-19T05:12:18.326Z,6.59
2023-05-19T05:13:21.092Z,4.10
2023-05-19T05:14:23.975Z,3.24
2023-05-19T05:15:26.849Z,11.04
2023-05-19T05:16:29.720Z,8.68
2023-05-19T05:17:32.730Z,5.97
2023-05-19T05:18:35.467Z,9.26
2023-05-19T05:19:38.250Z,14.73
2023-05-19T05:20:41.425Z,10.14
2023-05-19T05:21:44.402Z,9.47
2023-05-19T05:22:47.479Z,11.05
2023-05-19T05:23:50.245Z,9.25
2023-05-19T05:24:52.916Z,4.83
2023-05-19T05:25:55.918Z,4.15
2023-05-19T05:26:58.668Z,4.28
2023-05-19T05:28:01.443Z,5.38
2023-05-19T05:29:04.212Z,5.27
2023-05-19T05:30:06.978Z,5.45
2023-05-19T05:31:09.756Z,7.02
2023-05-19T05:32:12.586Z,7.45
2023-05-19T05:33:15.396Z,6.42
2023-05-19T05:34:18.178Z,4.09
2023-05-19T05:35:20.949Z,3.41
2023-05-19T05:36:23.718Z,4.55
2023-05-19T05:37:26.489Z,3.35
2023-05-19T05:38:29.259Z,4.02
2023-05-19T05:39:31.967Z,5.15
2023-05-19T05:40:34.721Z,3.22
2023-05-19T05:41:37.624Z,4.41
2023-05-19T05:42:40.559Z,4.90
2023-05-19T05:43:43.549Z,4.68
2023-05-19T05:44:46.716Z,5.78
2023-05-19T05:45:49.531Z,4.49
2023-05-19T05:46:52.367Z,3.79
2023-05-19T05:47:55.413Z,5.34
2023-05-19T05:48:58.113Z,4.68
2023-05-19T05:50:00.797Z,3.37
2023-05-19T05:51:03.464Z,5.41
2023-05-19T05:52:06.988Z,7.60
2023-05-19T05:53:09.827Z,11.82
2023-05-19T05:54:12.589Z,10.92
2023-05-19T05:55:15.366Z,12.78
2023-05-19T05:56:18.138Z,5.25
2023-05-19T05:57:21.220Z,3.58
2023-05-19T05:58:23.881Z,5.45
2023-05-19T05:59:26.767Z,6.33
2023-05-19T06:00:29.427Z,5.93
2023-05-19T06:01:34.300Z,6.74
2023-05-19T06:02:37.046Z,4.59
2023-05-19T06:03:39.997Z,6.30
2023-05-19T06:04:42.884Z,5.48
2023-05-19T06:05:45.478Z,2.77
2023-05-19T06:06:48.115Z,5.47
2023-05-19T06:07:51.090Z,6.32
2023-05-19T06:08:53.979Z,3.75
2023-05-19T06:09:56.744Z,11.42
2023-05-19T06:10:59.514Z,3.78
2023-05-19T06:12:02.379Z,3.57
2023-05-19T06:13:05.565Z,6.85
2023-05-19T06:14:08.452Z,15.94
2023-05-19T06:15:11.214Z,4.31
2023-05-19T06:16:14.056Z,3.34
2023-05-19T06:17:16.864Z,4.01
2023-05-19T06:18:19.736Z,9.62
2023-05-19T06:19:22.719Z,3.48
2023-05-19T06:20:25.589Z,7.05
2023-05-19T06:21:28.360Z,4.55
2023-05-19T06:22:31.138Z,7.12
2023-05-19T06:23:34.003Z,7.47
2023-05-19T06:24:38.748Z,7.40
2023-05-19T06:25:41.093Z,7.83
2023-05-19T06:26:43.754Z,7.65
2023-05-19T06:27:46.535Z,7.70
2023-05-19T06:28:49.301Z,6.95
2023-05-19T06:29:52.087Z,7.55
2023-05-19T06:30:55.154Z,6.58
2023-05-19T06:31:57.841Z,8.06
2023-05-19T06:33:00.756Z,7.83
2023-05-19T06:34:03.479Z,5.99
2023-05-19T06:35:06.368Z,5.99
2023-05-19T06:36:09.225Z,7.64
2023-05-19T06:37:11.905Z,5.04
2023-05-19T06:38:14.664Z,4.46
2023-05-19T06:39:18.692Z,5.57
2023-05-19T06:40:21.436Z,3.88
2023-05-19T06:41:24.100Z,5.36
2023-05-19T06:42:26.974Z,4.97
2023-05-19T06:43:29.749Z,4.40
2023-05-19T06:44:32.521Z,4.11
2023-05-19T06:45:35.294Z,7.59
2023-05-19T06:46:38.259Z,3.04
2023-05-19T06:47:41.235Z,3.71
2023-05-19T06:48:44.123Z,4.72
2023-05-19T06:49:46.895Z,4.68
2023-05-19T06:50:49.467Z,7.36
2023-05-19T06:51:52.130Z,7.86
2023-05-19T06:52:54.907Z,9.66
2023-05-19T06:53:57.789Z,5.51
2023-05-19T06:55:00.652Z,5.62
2023-05-19T06:56:03.339Z,6.95
2023-05-19T06:57:05.992Z,8.22
2023-05-19T06:58:08.769Z,6.64
2023-05-19T06:59:11.534Z,6.66
2023-05-19T07:00:17.021Z,7.85
2023-05-19T07:01:18.847Z,7.84
2023-05-19T07:02:21.597Z,6.97
2023-05-19T07:03:24.356Z,10.23
2023-05-19T07:04:27.245Z,8.50
2023-05-19T07:05:30.220Z,8.76
2023-05-19T07:06:32.989Z,8.16
2023-05-19T07:07:35.774Z,9.49
2023-05-19T07:08:38.436Z,8.52
2023-05-19T07:09:41.206Z,10.20
2023-05-19T07:10:44.189Z,7.02
2023-05-19T07:11:46.970Z,8.34
2023-05-19T07:12:49.728Z,7.75
2023-05-19T07:13:52.712Z,9.04
2023-05-19T07:14:55.490Z,9.14
2023-05-19T07:15:58.376Z,8.11
2023-05-19T07:17:01.117Z,7.72
2023-05-19T07:18:03.959Z,8.79
2023-05-19T07:19:06.705Z,8.15
2023-05-19T07:20:09.443Z,10.85
2023-05-19T07:21:12.626Z,12.14
2023-05-19T07:22:15.305Z,10.28
2023-05-19T07:23:18.494Z,10.02
2023-05-19T07:24:21.246Z,7.80
2023-05-19T07:25:24.129Z,9.55
2023-05-19T07:26:26.893Z,9.48
2023-05-19T07:27:29.675Z,8.43
2023-05-19T07:28:32.537Z,12.35
2023-05-19T07:29:35.418Z,7.57
2023-05-19T07:30:38.184Z,8.15
2023-05-19T07:31:41.013Z,9.78
2023-05-19T07:32:43.870Z,8.32
2023-05-19T07:33:46.633Z,8.40
2023-05-19T07:34:49.276Z,7.22
2023-05-19T07:35:52.053Z,10.22
2023-05-19T07:36:54.717Z,7.76
2023-05-19T07:37:57.385Z,8.98
2023-05-19T07:39:00.139Z,6.45
2023-05-19T07:40:02.847Z,9.58
2023-05-19T07:41:05.510Z,7.64
2023-05-19T07:42:08.374Z,6.42
2023-05-19T07:43:11.362Z,9.58
2023-05-19T07:44:14.224Z,10.05
2023-05-19T07:45:17.448Z,10.03
2023-05-19T07:46:20.333Z,10.27
2023-05-19T07:47:23.455Z,9.92
2023-05-19T07:48:26.263Z,8.90
2023-05-19T07:49:29.007Z,7.65
2023-05-19T07:51:34.857Z,11.20
2023-05-19T07:52:37.738Z,12.44
2023-05-19T07:53:40.628Z,11.63
2023-05-19T07:54:43.595Z,12.02
2023-05-19T07:55:46.459Z,11.79
2023-05-19T07:56:49.226Z,14.33
2023-05-19T07:57:52.008Z,10.78
2023-05-19T07:58:54.983Z,10.34
2023-05-19T07:59:57.853Z,10.38
2023-05-19T08:01:00.827Z,13.58
2023-05-19T08:02:03.734Z,11.51
2023-05-19T08:03:06.949Z,12.03
2023-05-19T08:04:12.687Z,10.89
2023-05-19T08:05:14.683Z,11.55
2023-05-19T08:06:17.661Z,12.02
2023-05-19T08:07:20.635Z,19.40
2023-05-19T08:08:23.929Z,12.52
2023-05-19T08:09:26.799Z,12.96
2023-05-19T08:10:29.481Z,10.97
2023-05-19T08:11:32.446Z,11.70
2023-05-19T08:12:35.428Z,11.12
2023-05-19T08:13:38.404Z,9.82
2023-05-19T08:14:41.187Z,10.27
2023-05-19T08:15:43.662Z,11.05
2023-05-19T08:16:46.411Z,12.46
2023-05-19T08:17:49.155Z,9.68
2023-05-19T08:18:52.191Z,12.19
2023-05-19T08:19:54.848Z,9.48
2023-05-19T08:20:57.602Z,15.16
2023-05-19T08:22:00.373Z,9.35
2023-05-19T08:23:03.143Z,12.08
2023-05-19T08:24:06.339Z,14.19
2023-05-19T08:25:09.108Z,12.16
2023-05-19T08:26:11.877Z,15.08
2023-05-19T08:27:14.647Z,15.38
2023-05-19T08:28:17.527Z,15.86
2023-05-19T08:29:20.396Z,11.92
2023-05-19T08:30:23.227Z,13.29
2023-05-19T08:31:26.049Z,10.71
2023-05-19T08:32:28.843Z,12.30
2023-05-19T08:33:31.592Z,11.55
2023-05-19T08:34:34.580Z,10.75
2023-05-19T08:35:37.239Z,12.13
2023-05-19T08:36:40.007Z,10.48
2023-05-19T08:37:42.802Z,12.48
2023-05-19T08:38:45.657Z,12.67
2023-05-19T08:39:48.326Z,14.25
2023-05-19T08:40:51.199Z,13.58
2023-05-19T08:41:54.177Z,11.36
2023-05-19T08:42:56.953Z,10.27
2023-05-19T08:43:59.720Z,10.71
2023-05-19T08:45:02.817Z,13.98
2023-05-19T08:46:05.867Z,17.12
2023-05-19T08:47:08.573Z,13.72
2023-05-19T08:48:11.360Z,16.21
2023-05-19T08:49:14.614Z,10.17
2023-05-19T08:50:17.605Z,10.21
2023-05-19T08:51:20.030Z,11.68
2023-05-19T08:52:22.715Z,10.37
2023-05-19T08:54:29.696Z,15.45
2023-05-19T08:55:32.934Z,13.48
2023-05-19T08:56:36.058Z,13.66
2023-05-19T08:57:38.725Z,15.59
2023-05-19T08:58:41.523Z,13.67
2023-05-19T08:59:44.369Z,14.75
2023-05-19T09:00:47.387Z,13.48
2023-05-19T09:01:50.144Z,10.82
2023-05-19T09:03:00.221Z,10.87
2023-05-19T09:03:57.327Z,13.85
2023-05-19T09:05:00.191Z,11.28
2023-05-19T09:06:03.071Z,12.37
2023-05-19T09:07:05.831Z,14.63
2023-05-19T09:08:08.594Z,14.81
2023-05-19T09:09:11.376Z,14.40
2023-05-19T09:10:14.147Z,14.12
2023-05-19T09:11:17.122Z,14.98
2023-05-19T09:12:19.892Z,15.43
2023-05-19T09:13:22.769Z,15.87
2023-05-19T09:14:25.584Z,14.35
2023-05-19T09:15:28.315Z,15.18
2023-05-19T09:16:31.199Z,17.64
2023-05-19T09:17:33.985Z,13.52
2023-05-19T09:18:36.728Z,16.05
2023-05-19T09:19:39.502Z,14.55
2023-05-19T09:20:42.176Z,14.11
2023-05-19T09:21:45.256Z,12.89
2023-05-19T09:22:48.231Z,13.95
2023-05-19T09:23:51.006Z,12.76
2023-05-19T09:24:53.677Z,12.16
2023-05-19T09:25:56.443Z,13.64
2023-05-19T09:27:00.241Z,15.88
2023-05-19T09:28:03.230Z,13.11
2023-05-19T09:29:05.986Z,16.63
2023-05-19T09:30:08.659Z,13.71
2023-05-19T09:31:11.538Z,14.93
2023-05-19T09:32:14.656Z,13.07
2023-05-19T09:33:17.424Z,13.65
2023-05-19T09:34:20.156Z,12.41
2023-05-19T09:35:22.933Z,11.45
2023-05-19T09:36:25.799Z,13.76
2023-05-19T09:37:28.791Z,17.23
2023-05-19T09:38:31.552Z,9.92
2023-05-19T09:39:34.426Z,12.22
2023-05-19T09:40:37.199Z,13.05
2023-05-19T09:41:40.079Z,11.41
2023-05-19T09:42:43.163Z,12.95
2023-05-19T09:43:45.820Z,14.62
2023-05-19T09:44:48.595Z,14.09
2023-05-19T09:45:51.368Z,15.85
2023-05-19T09:46:54.241Z,11.19
2023-05-19T09:47:57.371Z,11.42
2023-05-19T09:49:01.014Z,14.43
2023-05-19T09:50:03.703Z,11.47
2023-05-19T09:51:06.589Z,12.61
2023-05-19T09:52:11.034Z,11.97
2023-05-19T09:53:13.432Z,12.04
2023-05-19T09:54:16.219Z,10.85
2023-05-19T09:55:18.877Z,12.90
2023-05-19T09:56:21.647Z,12.75
2023-05-19T09:57:24.317Z,12.82
2023-05-19T09:58:27.304Z,12.57
2023-05-19T09:59:32.277Z,15.92
2023-05-19T10:00:34.489Z,13.48
2023-05-19T10:01:37.386Z,11.66
2023-05-19T10:02:40.043Z,13.23
2023-05-19T10:03:42.580Z,11.84
2023-05-19T10:04:45.299Z,13.96
2023-05-19T10:05:48.032Z,18.85
2023-05-19T10:06:50.805Z,19.65
2023-05-19T10:07:53.579Z,19.55
2023-05-19T10:08:56.346Z,18.58
2023-05-19T10:09:59.019Z,19.26
2023-05-19T10:11:01.799Z,16.97
2023-05-19T10:12:04.384Z,19.07
2023-05-19T10:13:07.150Z,18.41
2023-05-19T10:14:10.116Z,16.38
2023-05-19T10:15:12.774Z,19.32
2023-05-19T10:16:15.577Z,17.21
2023-05-19T10:17:18.319Z,17.84
2023-05-19T10:18:21.006Z,13.28
2023-05-19T10:19:23.825Z,16.28
2023-05-19T10:20:26.643Z,15.84
2023-05-19T10:21:29.312Z,18.36
2023-05-19T10:22:32.097Z,22.32
2023-05-19T10:23:34.759Z,25.98
2023-05-19T10:24:37.627Z,21.30
2023-05-19T10:25:40.296Z,20.81
2023-05-19T10:26:43.096Z,20.78
2023-05-19T10:27:45.365Z,19.89
2023-05-19T10:28:48.100Z,23.89
2023-05-19T10:29:51.087Z,22.08
2023-05-19T10:30:53.748Z,20.78
2023-05-19T10:31:56.639Z,20.93
2023-05-19T10:32:59.445Z,21.07
2023-05-19T10:34:02.174Z,20.56
2023-05-19T10:35:05.042Z,19.28
2023-05-19T10:36:07.709Z,18.76
2023-05-19T10:37:10.589Z,15.50
2023-05-19T10:38:13.459Z,16.05
2023-05-19T10:39:16.547Z,21.54
2023-05-19T10:40:19.717Z,17.32
2023-05-19T10:41:22.710Z,19.60
2023-05-19T10:42:25.370Z,21.93
2023-05-19T10:43:28.142Z,18.46
2023-05-19T10:44:30.908Z,17.61
2023-05-19T10:45:34.165Z,20.95
2023-05-19T10:46:37.270Z,18.92
2023-05-19T10:47:39.963Z,21.45
2023-05-19T10:48:42.626Z,20.15
2023-05-19T10:49:45.299Z,16.38
2023-05-19T10:50:48.179Z,20.13
2023-05-19T10:51:50.945Z,19.82
2023-05-19T10:52:53.723Z,17.11
2023-05-19T10:53:56.485Z,17.57
2023-05-19T10:54:59.454Z,20.12
2023-05-19T10:56:02.360Z,21.59
2023-05-19T10:57:05.002Z,23.58
2023-05-19T10:58:07.890Z,17.87
2023-05-19T10:59:10.953Z,22.35
2023-05-19T11:00:13.842Z,19.20
2023-05-19T11:01:16.855Z,23.85
2023-05-19T11:02:19.612Z,17.81
2023-05-19T11:03:22.557Z,14.93
2023-05-19T11:04:25.511Z,14.73
2023-05-19T11:05:28.408Z,12.65
2023-05-19T11:06:31.287Z,13.16
2023-05-19T11:07:34.170Z,14.75
2023-05-19T11:08:37.035Z,14.98
2023-05-19T11:09:40.674Z,12.25
2023-05-19T11:10:43.809Z,14.86
2023-05-19T11:11:46.678Z,14.25
2023-05-19T11:12:49.452Z,15.31
2023-05-19T11:13:52.233Z,15.98
2023-05-19T11:14:55.000Z,14.34
2023-05-19T11:15:57.671Z,12.31
2023-05-19T11:17:00.610Z,12.95
2023-05-19T11:18:03.381Z,14.62
2023-05-19T11:19:06.273Z,17.22
2023-05-19T11:20:09.062Z,17.29
2023-05-19T11:21:11.808Z,12.78
2023-05-19T11:22:14.821Z,13.54
2023-05-19T11:23:17.528Z,12.58
2023-05-19T11:24:20.253Z,13.34
2023-05-19T11:25:23.058Z,14.22
2023-05-19T11:26:25.694Z,17.25
2023-05-19T11:27:28.582Z,17.32
2023-05-19T11:28:31.239Z,13.91
2023-05-19T11:29:34.815Z,15.75
2023-05-19T11:30:37.608Z,14.97
2023-05-19T11:31:40.412Z,15.58
2023-05-19T11:32:43.384Z,16.08
2023-05-19T11:33:46.140Z,14.52
2023-05-19T11:34:48.998Z,16.85
2023-05-19T11:35:51.872Z,14.82
2023-05-19T11:36:54.646Z,17.10
2023-05-19T11:37:57.730Z,16.31
2023-05-19T11:39:00.501Z,18.03
2023-05-19T11:40:03.270Z,13.74
2023-05-19T11:41:05.955Z,15.18
2023-05-19T11:42:08.824Z,18.52
2023-05-19T11:43:11.794Z,14.22
2023-05-19T11:44:14.564Z,14.63
2023-05-19T11:45:17.232Z,16.92
2023-05-19T11:46:19.984Z,16.19
2023-05-19T11:47:22.695Z,17.28
2023-05-19T11:48:25.390Z,17.98
2023-05-19T11:49:28.118Z,14.11
2023-05-19T11:50:30.890Z,16.10
2023-05-19T11:51:33.659Z,15.84
2023-05-19T11:52:36.857Z,19.80
2023-05-19T11:53:39.717Z,16.57
2023-05-19T11:54:42.393Z,17.14
2023-05-19T11:55:45.807Z,14.84
2023-05-19T11:56:48.853Z,15.35
2023-05-19T11:58:02.784Z,15.44
2023-05-19T11:58:56.255Z,13.41
2023-05-19T11:59:59.015Z,15.55
2023-05-19T12:01:01.784Z,16.19
2023-05-19T12:02:04.557Z,13.88
2023-05-19T12:03:07.624Z,13.39
2023-05-19T12:04:10.647Z,16.03
2023-05-19T12:05:13.477Z,14.95
2023-05-19T12:06:16.283Z,12.44
2023-05-19T12:07:18.929Z,14.19
2023-05-19T12:08:21.875Z,14.45
2023-05-19T12:09:24.577Z,14.48
2023-05-19T12:10:27.348Z,16.85
2023-05-19T12:11:30.032Z,15.99
2023-05-19T12:12:32.685Z,13.09
2023-05-19T12:13:35.361Z,13.02
2023-05-19T12:14:38.244Z,11.45
2023-05-19T12:15:41.000Z,12.01
2023-05-19T12:16:44.033Z,11.22
2023-05-19T12:17:46.990Z,10.76
2023-05-19T12:18:49.767Z,9.08
2023-05-19T12:19:52.510Z,12.79
2023-05-19T12:20:55.281Z,14.08
2023-05-19T12:21:57.952Z,12.47
2023-05-19T12:23:00.834Z,11.19
2023-05-19T12:24:03.597Z,10.32
2023-05-19T12:25:06.679Z,11.26
2023-05-19T12:26:09.546Z,14.58
2023-05-19T12:27:12.329Z,11.82
2023-05-19T12:28:14.987Z,12.62
2023-05-19T12:29:17.759Z,9.75
2023-05-19T12:30:20.735Z,10.28
2023-05-19T12:31:24.064Z,12.03
2023-05-19T12:32:26.895Z,11.20
2023-05-19T12:33:29.465Z,10.06
2023-05-19T12:34:32.134Z,13.45
2023-05-19T12:35:35.010Z,9.89
2023-05-19T12:36:37.882Z,12.83
2023-05-19T12:37:40.556Z,12.93
2023-05-19T12:38:43.324Z,15.99
2023-05-19T12:39:46.127Z,12.35
2023-05-19T12:40:48.767Z,12.79
2023-05-19T12:41:51.433Z,10.15
2023-05-19T12:42:54.210Z,14.81
2023-05-19T12:43:56.876Z,12.44
2023-05-19T12:45:00.770Z,17.69
2023-05-19T12:46:03.916Z,14.26
2023-05-19T12:47:06.635Z,12.29
2023-05-19T12:48:09.434Z,12.37
2023-05-19T12:49:12.176Z,12.97
2023-05-19T12:50:14.944Z,12.68
2023-05-19T12:51:17.616Z,12.23
2023-05-19T12:52:20.897Z,15.49
2023-05-19T12:53:23.779Z,15.94
2023-05-19T12:54:26.773Z,17.47
2023-05-19T12:55:29.750Z,13.05
2023-05-19T12:56:33.013Z,14.53
2023-05-19T12:57:35.988Z,15.51
2023-05-19T12:58:38.968Z,15.91
2023-05-19T12:59:41.948Z,16.42
2023-05-19T13:00:45.704Z,13.26
2023-05-19T13:01:48.970Z,12.08
2023-05-19T13:02:51.979Z,13.14
2023-05-19T13:03:55.304Z,12.37
2023-05-19T13:04:58.065Z,17.34
2023-05-19T13:06:00.949Z,15.94
2023-05-19T13:07:03.813Z,16.45
2023-05-19T13:08:06.596Z,19.35
2023-05-19T13:09:09.255Z,17.80
2023-05-19T13:10:12.230Z,14.96
2023-05-19T13:11:14.999Z,16.54
2023-05-19T13:12:17.793Z,17.16
2023-05-19T13:13:20.654Z,15.29
2023-05-19T13:14:23.416Z,14.72
2023-05-19T13:15:26.340Z,16.27
2023-05-19T13:16:29.212Z,18.20
2023-05-19T13:17:32.100Z,16.88
2023-05-19T13:18:35.121Z,16.45
2023-05-19T13:19:37.974Z,17.50
2023-05-19T13:20:40.722Z,17.10
2023-05-19T13:21:43.647Z,16.14
2023-05-19T13:22:46.621Z,17.02
2023-05-19T13:23:49.544Z,16.14
2023-05-19T13:24:52.269Z,16.54
2023-05-19T13:25:55.142Z,15.08
2023-05-19T13:26:57.915Z,13.32
2023-05-19T13:28:00.938Z,12.98
2023-05-19T13:29:03.561Z,14.91
2023-05-19T13:30:06.344Z,18.08
2023-05-19T13:31:09.626Z,20.25
2023-05-19T13:32:12.409Z,16.20
2023-05-19T13:33:15.225Z,15.52
2023-05-19T13:34:17.934Z,20.67
2023-05-19T13:35:20.720Z,15.12
2023-05-19T13:36:23.479Z,14.14
2023-05-19T13:37:26.203Z,14.64
2023-05-19T13:38:28.923Z,14.87
2023-05-19T13:39:31.590Z,14.46
2023-05-19T13:40:34.537Z,16.74
2023-05-19T13:41:37.454Z,16.55
2023-05-19T13:42:40.150Z,13.55
2023-05-19T13:43:42.884Z,14.08
2023-05-19T13:44:45.665Z,16.23
2023-05-19T13:45:48.431Z,14.08
2023-05-19T13:46:52.323Z,15.11